createdAt,value
2023-02-16T00:00:51.454Z,102549.16
2023-02-16T00:03:23.058Z,102539.59
2023-02-16T00:05:50.772Z,102550.94
2023-02-16T00:08:17.441Z,102549.25
2023-02-16T00:11:04.918Z,102540.72
2023-02-16T00:13:52.938Z,102540.81
2023-02-16T00:16:23.292Z,102548.47
2023-02-16T00:18:51.173Z,102544.13
2023-02-16T00:21:18.751Z,102534.66
2023-02-16T00:23:46.022Z,102541.47
2023-02-16T00:26:23.808Z,102537.13
2023-02-16T00:28:54.062Z,102535.59
2023-02-16T00:31:24.394Z,102541.56
2023-02-16T00:33:51.035Z,102539.84
2023-02-16T00:36:17.629Z,102534.66
2023-02-16T00:38:44.799Z,102523.75
2023-02-16T00:41:43.317Z,102533.78
2023-02-16T00:44:17.203Z,102538.25
2023-02-16T00:46:44.962Z,102540.03
2023-02-16T00:49:15.871Z,102530.41
2023-02-16T00:51:42.984Z,102521.78
2023-02-16T00:54:09.796Z,102519.22
2023-02-16T00:56:37.134Z,102524.34
2023-02-16T00:59:07.850Z,102517.44
2023-02-16T01:01:36.813Z,102518.38
2023-02-16T01:04:06.944Z,102510.69
2023-02-16T01:06:52.158Z,102517.53
2023-02-16T01:09:39.600Z,102515.63
2023-02-16T01:12:14.957Z,102519.41
2023-02-16T01:14:41.642Z,102511.63
2023-02-16T01:17:09.698Z,102505.47
2023-02-16T01:19:36.214Z,102513.06
2023-02-16T01:22:02.790Z,102502.75
2023-02-16T01:24:29.340Z,102500.31
2023-02-16T01:26:55.932Z,102508.72
2023-02-16T01:29:22.515Z,102507.00
2023-02-16T01:31:49.181Z,102512.41
2023-02-16T01:34:15.935Z,102513.56
2023-02-16T01:36:49.478Z,102515.91
2023-02-16T01:39:19.268Z,102504.75
2023-02-16T01:41:56.506Z,102507.19
2023-02-16T01:44:59.996Z,102505.47
2023-02-16T01:47:33.096Z,102505.69
2023-02-16T01:50:02.762Z,102496.03
2023-02-16T01:52:36.685Z,102502.09
2023-02-16T01:55:21.995Z,102499.47
2023-02-16T01:58:14.563Z,102499.53
2023-02-16T02:00:54.729Z,102489.88
2023-02-16T02:03:45.114Z,102497.06
2023-02-16T02:06:19.042Z,102491.78
2023-02-16T02:08:58.878Z,102491.78
2023-02-16T02:11:32.571Z,102488.53
2023-02-16T02:14:06.544Z,102490.06
2023-02-16T02:16:33.300Z,102479.66
2023-02-16T02:18:59.880Z,102480.03
2023-02-16T02:22:06.818Z,102476.06
2023-02-16T02:24:33.307Z,102461.19
2023-02-16T02:27:18.393Z,102469.16
2023-02-16T02:30:29.921Z,102449.19
2023-02-16T02:33:25.894Z,102460.44
2023-02-16T02:36:30.796Z,102456.97
2023-02-16T02:39:12.799Z,102454.59
2023-02-16T02:42:05.670Z,102460.44
2023-02-16T02:44:44.313Z,102460.75
2023-02-16T02:47:10.927Z,102446.81
2023-02-16T02:49:37.505Z,102443.81
2023-02-16T02:52:04.652Z,102441.16
2023-02-16T02:54:57.147Z,102439.56
2023-02-16T02:57:55.563Z,102449.97
2023-02-16T03:00:47.913Z,102440.41
2023-02-16T03:03:25.230Z,102439.56
2023-02-16T03:05:58.285Z,102442.19
2023-02-16T03:08:29.164Z,102442.19
2023-02-16T03:11:23.468Z,102434.34
2023-02-16T03:13:58.649Z,102431.03
2023-02-16T03:16:40.890Z,102432.63
2023-02-16T03:19:29.298Z,102433.59
2023-02-16T03:22:16.894Z,102426.66
2023-02-16T03:25:03.058Z,102421.47
2023-02-16T03:27:57.201Z,102429.41
2023-02-16T03:30:25.760Z,102422.53
2023-02-16T03:32:52.903Z,102440.75
2023-02-16T03:35:20.105Z,102438.13
2023-02-16T03:37:47.610Z,102428.47
2023-02-16T03:40:29.777Z,102425.19
2023-02-16T03:43:04.418Z,102429.31
2023-02-16T03:45:35.058Z,102423.47
2023-02-16T03:48:03.419Z,102422.63
2023-02-16T03:50:30.521Z,102430.25
2023-02-16T03:53:06.765Z,102414.75
2023-02-16T03:55:47.165Z,102435.66
2023-02-16T03:58:16.879Z,102433.97
2023-02-16T04:00:44.081Z,102434.78
2023-02-16T04:03:11.334Z,102428.75
2023-02-16T04:05:38.342Z,102421.75
2023-02-16T04:08:06.283Z,102413.59
2023-02-16T04:10:33.327Z,102422.63
2023-02-16T04:13:00.001Z,102417.31
2023-02-16T04:15:29.218Z,102419.19
2023-02-16T04:17:55.787Z,102425.44
2023-02-16T04:20:28.792Z,102427.91
2023-02-16T04:22:55.919Z,102426.28
2023-02-16T04:25:23.241Z,102419.97
2023-02-16T04:27:51.553Z,102432.34
2023-02-16T04:30:24.438Z,102428.84
2023-02-16T04:32:51.714Z,102423.66
2023-02-16T04:35:18.807Z,102434.34
2023-02-16T04:37:45.521Z,102425.53
2023-02-16T04:40:13.860Z,102433.38
2023-02-16T04:42:44.651Z,102433.47
2023-02-16T04:45:12.124Z,102418.53
2023-02-16T04:47:38.655Z,102423.91
2023-02-16T04:50:06.245Z,102422.88
2023-02-16T04:52:34.278Z,102425.44
2023-02-16T04:55:00.991Z,102425.63
2023-02-16T04:57:27.876Z,102424.78
2023-02-16T04:59:54.428Z,102429.97
2023-02-16T05:02:20.969Z,102425.63
2023-02-16T05:04:47.700Z,102421.34
2023-02-16T05:07:14.358Z,102417.69
2023-02-16T05:09:40.901Z,102408.19
2023-02-16T05:12:26.204Z,102409.72
2023-02-16T05:14:52.745Z,102388.06
2023-02-16T05:17:22.532Z,102404.53
2023-02-16T05:20:00.505Z,102394.03
2023-02-16T05:22:28.928Z,102398.56
2023-02-16T05:24:55.574Z,102381.69
2023-02-16T05:27:24.919Z,102386.00
2023-02-16T05:29:51.958Z,102388.72
2023-02-16T05:32:19.303Z,102394.03
2023-02-16T05:34:45.974Z,102394.88
2023-02-16T05:37:14.541Z,102401.28
2023-02-16T05:39:41.412Z,102391.44
2023-02-16T05:42:08.507Z,102404.63
2023-02-16T05:44:35.666Z,102394.88
2023-02-16T05:47:02.217Z,102399.31
2023-02-16T05:49:28.799Z,102399.31
2023-02-16T05:51:55.906Z,102398.56
2023-02-16T05:54:22.513Z,102401.97
2023-02-16T05:56:51.624Z,102412.56
2023-02-16T05:59:18.595Z,102415.38
2023-02-16T06:01:50.409Z,102420.56
2023-02-16T06:04:17.795Z,102419.91
2023-02-16T06:06:44.513Z,102419.84
2023-02-16T06:09:11.171Z,102418.88
2023-02-16T06:11:37.784Z,102406.50
2023-02-16T06:14:07.410Z,102417.09
2023-02-16T06:16:35.167Z,102412.75
2023-02-16T06:19:02.275Z,102407.63
2023-02-16T06:21:29.467Z,102419.84
2023-02-16T06:23:56.770Z,102409.25
2023-02-16T06:26:23.592Z,102403.75
2023-02-16T06:28:50.353Z,102412.47
2023-02-16T06:31:17.433Z,102421.94
2023-02-16T06:33:44.610Z,102417.59
2023-02-16T06:36:11.696Z,102409.66
2023-02-16T06:38:38.453Z,102412.97
2023-02-16T06:41:06.208Z,102395.47
2023-02-16T06:43:32.990Z,102401.63
2023-02-16T06:45:59.584Z,102423.25
2023-02-16T06:48:26.099Z,102416.38
2023-02-16T06:50:53.022Z,102419.13
2023-02-16T06:53:20.482Z,102418.81
2023-02-16T06:55:49.725Z,102411.63
2023-02-16T06:58:16.328Z,102408.53
2023-02-16T07:00:42.852Z,102428.38
2023-02-16T07:03:09.445Z,102424.88
2023-02-16T07:05:36.034Z,102432.63
2023-02-16T07:08:02.587Z,102424.97
2023-02-16T07:10:43.698Z,102438.78
2023-02-16T07:13:15.595Z,102430.09
2023-02-16T07:15:42.183Z,102425.72
2023-02-16T07:18:08.750Z,102428.19
2023-02-16T07:20:35.336Z,102421.28
2023-02-16T07:23:01.884Z,102420.34
2023-02-16T07:25:28.684Z,102435.19
2023-02-16T07:27:55.333Z,102431.69
2023-02-16T07:30:22.502Z,102429.03
2023-02-16T07:32:49.201Z,102434.25
2023-02-16T07:35:15.711Z,102438.59
2023-02-16T07:37:42.275Z,102443.06
2023-02-16T07:40:09.316Z,102432.72
2023-02-16T07:42:35.963Z,102444.94
2023-02-16T07:45:02.554Z,102449.28
2023-02-16T07:47:29.202Z,102453.75
2023-02-16T07:49:55.750Z,102456.28
2023-02-16T07:52:22.506Z,102454.41
2023-02-16T07:54:49.114Z,102465.84
2023-02-16T07:57:15.632Z,102454.41
2023-02-16T07:59:42.255Z,102468.50
2023-02-16T08:02:15.961Z,102465.94
2023-02-16T08:04:43.735Z,102465.94
2023-02-16T08:07:14.761Z,102468.50
2023-02-16T08:09:41.523Z,102464.91
2023-02-16T08:12:12.552Z,102462.44
2023-02-16T08:14:40.208Z,102462.28
2023-02-16T08:17:08.148Z,102455.34
2023-02-16T08:19:35.016Z,102469.25
2023-02-16T08:22:02.568Z,102465.09
2023-02-16T08:24:29.391Z,102462.53
2023-02-16T08:26:56.291Z,102470.22
2023-02-16T08:29:23.928Z,102473.59
2023-02-16T08:31:51.816Z,102466.88
2023-02-16T08:34:19.992Z,102472.09
2023-02-16T08:36:51.309Z,102473.81
2023-02-16T08:39:20.633Z,102473.69
2023-02-16T08:41:49.923Z,102482.47
2023-02-16T08:44:17.920Z,102467.66
2023-02-16T08:46:46.564Z,102481.53
2023-02-16T08:49:14.629Z,102485.25
2023-02-16T08:51:44.109Z,102485.13
2023-02-16T08:54:18.091Z,102485.03
2023-02-16T08:56:47.175Z,102494.78
2023-02-16T08:59:19.136Z,102503.59
2023-02-16T09:01:45.857Z,102480.97
2023-02-16T09:04:13.460Z,102478.97
2023-02-16T09:06:42.593Z,102492.91
2023-02-16T09:09:10.151Z,102478.25
2023-02-16T09:11:37.373Z,102481.44
2023-02-16T09:14:04.892Z,102479.66
2023-02-16T09:16:34.798Z,102475.28
2023-02-16T09:19:02.038Z,102482.38
2023-02-16T09:21:32.450Z,102483.25
2023-02-16T09:24:04.490Z,102470.84
2023-02-16T09:26:34.386Z,102462.81
2023-02-16T09:29:02.200Z,102457.59
2023-02-16T09:31:32.557Z,102467.25
2023-02-16T09:34:07.917Z,102467.25
2023-02-16T09:36:34.626Z,102474.44
2023-02-16T09:39:02.316Z,102477.84
2023-02-16T09:41:34.274Z,102484.88
2023-02-16T09:44:31.222Z,102474.25
2023-02-16T09:47:00.073Z,102475.22
2023-02-16T09:49:33.693Z,102474.44
2023-02-16T09:52:13.432Z,102485.72
2023-02-16T09:54:47.065Z,102486.56
2023-02-16T09:57:29.693Z,102493.66
2023-02-16T10:00:16.375Z,102503.31
2023-02-16T10:02:54.776Z,102491.00
2023-02-16T10:05:27.379Z,102490.91
2023-02-16T10:08:02.130Z,102493.47
2023-02-16T10:10:47.875Z,102481.09
2023-02-16T10:13:23.698Z,102480.41
2023-02-16T10:15:53.622Z,102491.69
2023-02-16T10:18:23.332Z,102496.03
2023-02-16T10:20:53.432Z,102500.41
2023-02-16T10:23:35.672Z,102503.91
2023-02-16T10:26:25.844Z,102489.03
2023-02-16T10:29:14.092Z,102493.31
2023-02-16T10:32:07.607Z,102493.19
2023-02-16T10:34:42.989Z,102488.75
2023-02-16T10:37:22.217Z,102486.94
2023-02-16T10:40:17.854Z,102494.03
2023-02-16T10:43:11.394Z,102488.66
2023-02-16T10:45:51.909Z,102496.59
2023-02-16T10:48:21.107Z,102487.78
2023-02-16T10:51:09.297Z,102466.13
2023-02-16T10:53:56.894Z,102475.41
2023-02-16T10:56:23.359Z,102467.44
2023-02-16T10:58:51.732Z,102464.25
2023-02-16T11:01:22.047Z,102476.25
2023-02-16T11:03:52.031Z,102475.97
2023-02-16T11:06:22.915Z,102475.97
2023-02-16T11:08:57.208Z,102475.88
2023-02-16T11:11:27.820Z,102474.09
2023-02-16T11:14:01.436Z,102472.47
2023-02-16T11:16:29.782Z,102463.78
2023-02-16T11:19:00.534Z,102460.00
2023-02-16T11:22:02.665Z,102470.41
2023-02-16T11:24:32.387Z,102458.28
2023-02-16T11:27:22.595Z,102454.69
2023-02-16T11:29:50.759Z,102455.34
2023-02-16T11:32:20.068Z,102447.59
2023-02-16T11:34:51.821Z,102461.38
2023-02-16T11:37:33.837Z,102443.25
2023-02-16T11:40:18.265Z,102445.50
2023-02-16T11:42:48.105Z,102436.59
2023-02-16T11:45:23.084Z,102440.00
2023-02-16T11:48:13.834Z,102437.34
2023-02-16T11:50:58.896Z,102430.34
2023-02-16T11:53:33.363Z,102426.00
2023-02-16T11:56:23.523Z,102423.16
2023-02-16T11:59:05.458Z,102416.91
2023-02-16T12:01:44.033Z,102413.31
2023-02-16T12:04:22.473Z,102414.06
2023-02-16T12:07:15.501Z,102408.69
2023-02-16T12:10:02.367Z,102409.53
2023-02-16T12:12:43.766Z,102400.63
2023-02-16T12:15:44.877Z,102401.50
2023-02-16T12:18:43.977Z,102390.75
2023-02-16T12:21:19.323Z,102380.16
2023-02-16T12:23:58.385Z,102369.47
2023-02-16T12:26:44.615Z,102367.56
2023-02-16T12:29:20.700Z,102360.47
2023-02-16T12:32:31.264Z,102359.53
2023-02-16T12:35:30.422Z,102360.38
2023-02-16T12:38:26.940Z,102351.56
2023-02-16T12:41:02.225Z,102347.03
2023-02-16T12:43:31.522Z,102347.03
2023-02-16T12:46:05.117Z,102341.63
2023-02-16T12:48:50.660Z,102331.88
2023-02-16T12:51:25.396Z,102342.47
2023-02-16T12:54:04.136Z,102331.78
2023-02-16T12:56:41.974Z,102320.50
2023-02-16T12:59:23.764Z,102334.53
2023-02-16T13:01:54.829Z,102334.44
2023-02-16T13:04:42.707Z,102341.44
2023-02-16T13:07:26.399Z,102329.03
2023-02-16T13:10:17.462Z,102328.91
2023-02-16T13:12:54.020Z,102323.59
2023-02-16T13:15:31.563Z,102317.56
2023-02-16T13:18:03.031Z,102320.00
2023-02-16T13:20:30.227Z,102314.69
2023-02-16T13:23:23.558Z,102311.94
2023-02-16T13:26:14.700Z,102300.41
2023-02-16T13:28:51.440Z,102287.13
2023-02-16T13:32:03.264Z,102288.09
2023-02-16T13:34:42.365Z,102289.78
2023-02-16T13:37:24.469Z,102271.22
2023-02-16T13:40:27.721Z,102272.09
2023-02-16T13:43:02.008Z,102267.63
2023-02-16T13:45:32.225Z,102263.09
2023-02-16T13:48:00.184Z,102264.88
2023-02-16T13:50:31.404Z,102262.13
2023-02-16T13:53:12.581Z,102269.22
2023-02-16T13:55:39.970Z,102252.66
2023-02-16T13:58:27.399Z,102260.22
2023-02-16T14:00:54.692Z,102262.22
2023-02-16T14:03:21.217Z,102261.09
2023-02-16T14:05:56.368Z,102256.63
2023-02-16T14:08:23.050Z,102251.31
2023-02-16T14:10:55.506Z,102246.75
2023-02-16T14:13:36.093Z,102241.56
2023-02-16T14:16:29.092Z,102243.25
2023-02-16T14:19:02.591Z,102230.97
2023-02-16T14:21:37.955Z,102229.03
2023-02-16T14:24:07.539Z,102226.63
2023-02-16T14:26:56.250Z,102221.63
2023-02-16T14:29:27.806Z,102239.63
2023-02-16T14:32:01.938Z,102240.72
2023-02-16T14:34:39.368Z,102237.94
2023-02-16T14:37:14.797Z,102242.28
2023-02-16T14:40:04.073Z,102226.72
2023-02-16T14:42:34.743Z,102236.13
2023-02-16T14:45:38.837Z,102233.50
2023-02-16T14:48:23.977Z,102244.94
2023-02-16T14:51:28.035Z,102241.44
2023-02-16T14:54:36.032Z,102248.53
2023-02-16T14:57:23.734Z,102245.88
2023-02-16T14:59:57.152Z,102249.63
2023-02-16T15:02:34.554Z,102245.88
2023-02-16T15:05:19.622Z,102246.03
2023-02-16T15:07:54.704Z,102232.13
2023-02-16T15:10:27.587Z,102249.53
2023-02-16T15:12:56.557Z,102256.50
2023-02-16T15:15:43.749Z,102249.41
2023-02-16T15:18:17.192Z,102243.38
2023-02-16T15:20:47.309Z,102244.94
2023-02-16T15:23:48.453Z,102243.38
2023-02-16T15:26:35.435Z,102243.25
2023-02-16T15:29:29.327Z,102242.28
2023-02-16T15:31:58.461Z,102234.00
2023-02-16T15:34:36.025Z,102219.25
2023-02-16T15:37:22.521Z,102240.59
2023-02-16T15:40:08.721Z,102236.28
2023-02-16T15:42:35.929Z,102236.47
2023-02-16T15:45:25.893Z,102243.38
2023-02-16T15:47:53.543Z,102228.41
2023-02-16T15:50:26.970Z,102225.00
2023-02-16T15:52:54.155Z,102230.13
2023-02-16T15:55:20.780Z,102223.88
2023-02-16T15:57:47.406Z,102216.09
2023-02-16T16:00:25.086Z,102216.97
2023-02-16T16:02:54.481Z,102223.97
2023-02-16T16:05:35.473Z,102217.81
2023-02-16T16:08:03.403Z,102204.56
2023-02-16T16:10:36.540Z,102211.66
2023-02-16T16:13:07.359Z,102205.50
2023-02-16T16:15:43.940Z,102208.16
2023-02-16T16:18:51.164Z,102202.84
2023-02-16T16:21:17.637Z,102211.75
2023-02-16T16:24:07.570Z,102211.75
2023-02-16T16:26:50.758Z,102199.34
2023-02-16T16:29:35.923Z,102197.75
2023-02-16T16:32:05.355Z,102194.91
2023-02-16T16:34:38.160Z,102187.25
2023-02-16T16:37:07.584Z,102187.91
2023-02-16T16:39:37.127Z,102179.84
2023-02-16T16:42:27.295Z,102186.00
2023-02-16T16:44:54.307Z,102175.38
2023-02-16T16:47:25.863Z,102173.59
2023-02-16T16:49:59.037Z,102179.75
2023-02-16T16:52:36.270Z,102176.25
2023-02-16T16:55:22.151Z,102164.13
2023-02-16T16:57:51.278Z,102175.38
2023-02-16T17:00:20.114Z,102178.03
2023-02-16T17:02:46.824Z,102169.22
2023-02-16T17:05:13.514Z,102172.00
2023-02-16T17:07:40.095Z,102172.75
2023-02-16T17:10:07.560Z,102172.75
2023-02-16T17:12:34.616Z,102163.19
2023-02-16T17:15:02.514Z,102158.84
2023-02-16T17:17:29.098Z,102153.53
2023-02-16T17:19:55.876Z,102154.28
2023-02-16T17:22:22.492Z,102163.84
2023-02-16T17:24:49.719Z,102148.03
2023-02-16T17:27:16.325Z,102149.06
2023-02-16T17:29:44.725Z,102143.66
2023-02-16T17:32:11.429Z,102133.06
2023-02-16T17:34:38.133Z,102135.53
2023-02-16T17:37:09.304Z,102147.59
2023-02-16T17:39:36.144Z,102133.38
2023-02-16T17:42:02.713Z,102129.97
2023-02-16T17:44:29.452Z,102131.56
2023-02-16T17:46:56.253Z,102118.41
2023-02-16T17:49:22.810Z,102123.63
2023-02-16T17:51:49.409Z,102123.63
2023-02-16T17:54:16.129Z,102138.56
2023-02-16T17:56:45.994Z,102146.53
2023-02-16T17:59:15.421Z,102140.38
2023-02-16T18:01:43.576Z,102142.19
2023-02-16T18:04:10.275Z,102143.97
2023-02-16T18:06:36.885Z,102143.03
2023-02-16T18:09:04.057Z,102132.41
2023-02-16T18:11:30.651Z,102127.22
2023-02-16T18:13:57.239Z,102129.78
2023-02-16T18:16:26.977Z,102120.13
2023-02-16T18:18:53.752Z,102139.44
2023-02-16T18:21:20.382Z,102133.16
2023-02-16T18:23:46.999Z,102124.47
2023-02-16T18:26:15.060Z,102134.03
2023-02-16T18:28:41.644Z,102123.94
2023-02-16T18:31:08.522Z,102137.81
2023-02-16T18:33:35.289Z,102136.03
2023-02-16T18:36:03.046Z,102118.53
2023-02-16T18:38:29.779Z,102143.13
2023-02-16T18:40:56.344Z,102147.38
2023-02-16T18:43:23.401Z,102139.31
2023-02-16T18:45:50.111Z,102144.63
2023-02-16T18:48:16.826Z,102131.38
2023-02-16T18:50:43.561Z,102128.06
2023-02-16T18:53:10.087Z,102132.31
2023-02-16T18:55:36.672Z,102130.63
2023-02-16T18:58:07.425Z,102127.97
2023-02-16T19:00:34.616Z,102132.31
2023-02-16T19:03:01.309Z,102126.06
2023-02-16T19:05:28.309Z,102132.53
2023-02-16T19:07:54.926Z,102143.78
2023-02-16T19:10:21.485Z,102121.91
2023-02-16T19:12:48.084Z,102134.13
2023-02-16T19:15:14.692Z,102129.56
2023-02-16T19:17:41.230Z,102131.38
2023-02-16T19:20:11.532Z,102126.72
2023-02-16T19:22:38.175Z,102116.41
2023-02-16T19:25:06.465Z,102123.22
2023-02-16T19:27:33.159Z,102122.56
2023-02-16T19:29:59.964Z,102126.81
2023-02-16T19:32:26.564Z,102118.84
2023-02-16T19:34:53.164Z,102115.34
2023-02-16T19:37:19.732Z,102116.31
2023-02-16T19:39:46.339Z,102124.06
2023-02-16T19:42:12.929Z,102115.25
2023-02-16T19:44:40.763Z,102117.16
2023-02-16T19:47:07.730Z,102119.72
2023-02-16T19:49:35.633Z,102117.91
2023-02-16T19:52:04.155Z,102110.25
2023-02-16T19:54:34.774Z,102115.34
2023-02-16T19:57:02.365Z,102112.81
2023-02-16T19:59:28.941Z,102106.75
2023-02-16T20:01:55.588Z,102105.06
2023-02-16T20:04:22.168Z,102124.06
2023-02-16T20:06:49.700Z,102118.09
2023-02-16T20:09:18.367Z,102115.25
2023-02-16T20:11:45.030Z,102109.94
2023-02-16T20:14:12.139Z,102118.75
2023-02-16T20:16:39.978Z,102119.59
2023-02-16T20:19:06.690Z,102128.50
2023-02-16T20:21:33.749Z,102117.16
2023-02-16T20:24:02.526Z,102117.06
2023-02-16T20:26:34.458Z,102107.28
2023-02-16T20:29:01.722Z,102108.16
2023-02-16T20:31:34.424Z,102106.56
2023-02-16T20:34:01.570Z,102097.75
2023-02-16T20:36:28.319Z,102102.00
2023-02-16T20:38:54.928Z,102090.63
2023-02-16T20:41:21.898Z,102082.88
2023-02-16T20:43:48.460Z,102098.38
2023-02-16T20:46:15.948Z,102091.38
2023-02-16T20:48:42.786Z,102100.19
2023-02-16T20:51:11.581Z,102091.28
2023-02-16T20:53:38.598Z,102093.09
2023-02-16T20:56:23.381Z,102084.59
2023-02-16T20:58:52.337Z,102087.78
2023-02-16T21:01:21.692Z,102089.59
2023-02-16T21:03:48.844Z,102085.34
2023-02-16T21:06:15.788Z,102091.69
2023-02-16T21:08:42.472Z,102091.38
2023-02-16T21:11:09.209Z,102090.53
2023-02-16T21:13:37.718Z,102089.59
2023-02-16T21:16:04.952Z,102097.53
2023-02-16T21:18:31.770Z,102089.91
2023-02-16T21:21:00.326Z,102091.50
2023-02-16T21:23:27.084Z,102086.09
2023-02-16T21:26:05.540Z,102092.22
2023-02-16T21:28:32.422Z,102086.28
2023-02-16T21:31:11.136Z,102080.78
2023-02-16T21:33:37.938Z,102079.94
2023-02-16T21:36:06.461Z,102078.22
2023-02-16T21:38:34.815Z,102074.63
2023-02-16T21:41:21.784Z,102080.03
2023-02-16T21:43:48.324Z,102072.06
2023-02-16T21:46:15.180Z,102078.22
2023-02-16T21:48:48.421Z,102072.19
2023-02-16T21:51:21.799Z,102076.31
2023-02-16T21:53:48.905Z,102082.69
2023-02-16T21:56:24.514Z,102078.34
2023-02-16T21:58:51.097Z,102075.78
2023-02-16T22:01:25.596Z,102078.22
2023-02-16T22:03:58.356Z,102081.94
2023-02-16T22:06:28.000Z,102085.97
2023-02-16T22:08:54.618Z,102083.44
2023-02-16T22:11:21.666Z,102084.38
2023-02-16T22:13:53.103Z,102088.19
2023-02-16T22:16:20.444Z,102085.34
2023-02-16T22:18:47.801Z,102079.50
2023-02-16T22:21:15.295Z,102082.03
2023-02-16T22:23:42.061Z,102072.38
2023-02-16T22:26:08.934Z,102070.69
2023-02-16T22:28:37.205Z,102071.53
2023-02-16T22:31:08.571Z,102077.78
2023-02-16T22:33:35.633Z,102076.84
2023-02-16T22:36:14.036Z,102092.84
2023-02-16T22:38:41.917Z,102072.19
2023-02-16T22:41:09.731Z,102086.72
2023-02-16T22:43:36.840Z,102068.50
2023-02-16T22:46:14.098Z,102085.25
2023-02-16T22:48:41.206Z,102082.59
2023-02-16T22:51:11.422Z,102092.34
2023-02-16T22:53:38.311Z,102086.09
2023-02-16T22:56:07.320Z,102064.44
2023-02-16T22:58:34.803Z,102072.94
2023-02-16T23:01:01.557Z,102069.44
2023-02-16T23:03:28.876Z,102067.75
2023-02-16T23:05:55.454Z,102068.59
2023-02-16T23:08:22.750Z,102065.09
2023-02-16T23:11:01.911Z,102073.16
2023-02-16T23:13:31.146Z,102075.78
2023-02-16T23:16:04.843Z,102075.78
2023-02-16T23:18:32.005Z,102073.25
2023-02-16T23:21:05.920Z,102069.97
2023-02-16T23:23:32.678Z,102072.41
2023-02-16T23:25:59.274Z,102077.81
2023-02-16T23:28:25.863Z,102068.16
2023-02-16T23:30:55.990Z,102072.50
2023-02-16T23:33:23.455Z,102068.25
2023-02-16T23:35:50.015Z,102069.84
2023-02-16T23:38:16.845Z,102051.00
2023-02-16T23:40:43.901Z,102068.91
2023-02-16T23:43:10.982Z,102083.09
2023-02-16T23:45:37.987Z,102065.59
2023-02-16T23:48:04.723Z,102061.06
2023-02-16T23:50:31.262Z,102054.06
2023-02-16T23:52:57.783Z,102062.00
2023-02-16T23:55:24.312Z,102058.41
2023-02-16T23:57:50.811Z,102056.59
